createdAt,value
2018-12-12T00:00:46.031Z,6.20
2018-12-12T00:03:14.937Z,5.77
2018-12-12T00:05:44.021Z,4.90
2018-12-12T00:08:13.485Z,5.13
2018-12-12T00:10:42.171Z,5.20
2018-12-12T00:13:10.871Z,5.63
2018-12-12T00:15:40.688Z,5.77
2018-12-12T00:18:10.009Z,5.43
2018-12-12T00:20:39.280Z,4.77
2018-12-12T00:23:08.659Z,5.53
2018-12-12T00:25:37.319Z,4.23
2018-12-12T00:28:06.444Z,6.27
2018-12-12T00:30:35.529Z,5.97
2018-12-12T00:33:04.214Z,5.93
2018-12-12T00:35:33.131Z,5.17
2018-12-12T00:38:02.120Z,5.17
2018-12-12T00:40:31.145Z,5.47
2018-12-12T00:43:00.096Z,4.47
2018-12-12T00:45:29.380Z,5.20
2018-12-12T00:47:58.500Z,4.63
2018-12-12T00:50:27.505Z,4.73
2018-12-12T00:52:56.668Z,5.20
2018-12-12T00:55:25.648Z,4.33
2018-12-12T00:57:54.878Z,3.97
2018-12-12T01:00:24.036Z,5.00
2018-12-12T01:02:53.012Z,5.07
2018-12-12T01:05:22.025Z,4.87
2018-12-12T01:07:50.995Z,5.20
2018-12-12T01:10:20.627Z,4.77
2018-12-12T01:12:49.621Z,5.23
2018-12-12T01:15:18.656Z,5.37
2018-12-12T01:17:47.607Z,5.57
2018-12-12T01:20:16.589Z,4.93
2018-12-12T01:22:45.577Z,4.40
2018-12-12T01:25:14.697Z,4.83
2018-12-12T01:27:43.660Z,5.07
2018-12-12T01:30:12.653Z,4.90
2018-12-12T01:32:41.666Z,4.67
2018-12-12T01:35:10.665Z,4.50
2018-12-12T01:37:39.652Z,5.73
2018-12-12T01:40:08.800Z,5.60
2018-12-12T01:42:37.809Z,5.17
2018-12-12T01:45:07.042Z,5.27
2018-12-12T01:47:36.100Z,5.40
2018-12-12T01:50:05.784Z,5.30
2018-12-12T01:52:34.780Z,5.70
2018-12-12T01:55:03.728Z,5.43
2018-12-12T01:57:32.692Z,6.03
2018-12-12T02:00:01.685Z,5.50
2018-12-12T02:02:30.824Z,5.60
2018-12-12T02:04:59.546Z,5.67
2018-12-12T02:07:28.400Z,5.33
2018-12-12T02:09:57.333Z,5.70
2018-12-12T02:12:26.042Z,5.50
2018-12-12T02:14:54.613Z,5.07
2018-12-12T02:17:23.573Z,4.63
2018-12-12T02:19:52.723Z,6.07
2018-12-12T02:22:21.857Z,5.20
2018-12-12T02:24:50.562Z,6.03
2018-12-12T02:27:20.051Z,5.43
2018-12-12T02:29:49.034Z,5.10
2018-12-12T02:32:18.419Z,5.03
2018-12-12T02:34:47.397Z,5.47
2018-12-12T02:37:16.387Z,5.87
2018-12-12T02:39:45.378Z,4.90
2018-12-12T02:42:14.365Z,5.00
2018-12-12T02:44:43.097Z,5.47
2018-12-12T02:47:12.070Z,6.13
2018-12-12T02:49:40.765Z,5.20
2018-12-12T02:52:09.365Z,5.40
2018-12-12T02:54:37.979Z,4.93
2018-12-12T02:57:06.889Z,5.10
2018-12-12T02:59:36.129Z,5.43
2018-12-12T03:02:05.207Z,4.50
2018-12-12T03:04:34.176Z,4.90
2018-12-12T03:07:03.210Z,4.33
2018-12-12T03:09:32.204Z,4.70
2018-12-12T03:12:01.263Z,4.73
2018-12-12T03:14:30.378Z,4.90
2018-12-12T03:16:59.351Z,4.80
2018-12-12T03:19:28.401Z,5.03
2018-12-12T03:21:57.094Z,5.37
2018-12-12T03:24:25.721Z,4.90
2018-12-12T03:26:54.622Z,4.67
2018-12-12T03:29:23.600Z,4.40
2018-12-12T03:31:52.925Z,5.47
2018-12-12T03:34:21.909Z,4.33
2018-12-12T03:36:50.901Z,5.03
2018-12-12T03:39:19.977Z,4.43
2018-12-12T03:41:48.915Z,4.53
2018-12-12T03:44:17.783Z,4.70
2018-12-12T03:46:46.899Z,3.97
2018-12-12T03:49:15.867Z,4.57
2018-12-12T03:51:45.081Z,5.30
2018-12-12T03:54:14.071Z,5.10
2018-12-12T03:56:43.409Z,5.70
2018-12-12T03:59:12.404Z,5.10
2018-12-12T04:01:41.597Z,4.63
2018-12-12T04:04:10.566Z,5.00
2018-12-12T04:06:39.462Z,4.80
2018-12-12T04:09:08.703Z,4.93
2018-12-12T04:11:37.711Z,5.50
2018-12-12T04:14:06.732Z,4.60
2018-12-12T04:16:35.735Z,5.77
2018-12-12T04:19:04.708Z,4.80
2018-12-12T04:21:33.843Z,5.03
2018-12-12T04:24:02.867Z,4.40
2018-12-12T04:26:31.867Z,4.27
2018-12-12T04:29:00.878Z,5.27
2018-12-12T04:31:30.228Z,5.50
2018-12-12T04:33:59.233Z,5.07
2018-12-12T04:36:28.292Z,5.20
2018-12-12T04:38:57.379Z,5.40
2018-12-12T04:41:26.409Z,5.40
2018-12-12T04:43:55.401Z,5.30
2018-12-12T04:46:24.399Z,5.30
2018-12-12T04:48:53.375Z,4.93
2018-12-12T04:51:22.352Z,4.53
2018-12-12T04:53:51.577Z,5.80
2018-12-12T04:56:20.577Z,4.70
2018-12-12T04:58:49.574Z,5.20
2018-12-12T05:01:18.585Z,6.67
2018-12-12T05:03:47.844Z,5.67
2018-12-12T05:06:16.850Z,6.23
2018-12-12T05:08:45.713Z,6.10
2018-12-12T05:11:14.675Z,6.80
2018-12-12T05:13:43.672Z,6.50
2018-12-12T05:16:12.661Z,6.70
2018-12-12T05:18:41.608Z,7.10
2018-12-12T05:21:10.588Z,7.20
2018-12-12T05:23:39.545Z,8.03
2018-12-12T05:26:08.462Z,6.80
2018-12-12T05:28:37.505Z,7.83
2018-12-12T05:31:06.220Z,7.67
2018-12-12T05:33:35.202Z,6.93
2018-12-12T05:36:04.166Z,7.93
2018-12-12T05:38:33.404Z,8.63
2018-12-12T05:41:02.600Z,8.60
2018-12-12T05:43:31.706Z,8.23
2018-12-12T05:46:00.716Z,8.23
2018-12-12T05:48:29.757Z,7.43
2018-12-12T05:50:58.684Z,8.27
2018-12-12T05:53:27.560Z,9.23
2018-12-12T05:56:02.503Z,9.27
2018-12-12T05:58:28.061Z,10.07
2018-12-12T06:00:57.079Z,10.13
2018-12-12T06:03:25.756Z,9.63
2018-12-12T06:05:54.864Z,9.90
2018-12-12T06:08:24.286Z,10.37
2018-12-12T06:10:52.948Z,11.23
2018-12-12T06:13:21.900Z,10.63
2018-12-12T06:15:51.020Z,8.93
2018-12-12T06:18:19.977Z,9.87
2018-12-12T06:20:48.674Z,9.50
2018-12-12T06:23:17.697Z,10.03
2018-12-12T06:25:46.700Z,10.23
2018-12-12T06:28:15.401Z,11.17
2018-12-12T06:30:44.246Z,10.60
2018-12-12T06:33:13.209Z,11.27
2018-12-12T06:35:42.184Z,11.73
2018-12-12T06:38:11.153Z,11.33
2018-12-12T06:40:40.177Z,11.13
2018-12-12T06:43:09.113Z,12.23
2018-12-12T06:45:38.128Z,11.37
2018-12-12T06:48:07.097Z,10.43
2018-12-12T06:50:36.128Z,10.33
2018-12-12T06:53:04.827Z,11.50
2018-12-12T06:55:33.753Z,11.67
2018-12-12T06:58:02.732Z,10.57
2018-12-12T07:00:31.726Z,11.30
2018-12-12T07:03:00.709Z,11.63
2018-12-12T07:05:29.609Z,12.33
2018-12-12T07:07:58.376Z,12.07
2018-12-12T07:10:26.980Z,10.73
2018-12-12T07:12:55.904Z,10.43
2018-12-12T07:15:24.919Z,11.07
2018-12-12T07:17:53.921Z,10.53
2018-12-12T07:20:22.587Z,12.57
2018-12-12T07:22:51.496Z,11.93
2018-12-12T07:25:20.471Z,11.87
2018-12-12T07:27:49.155Z,11.63
2018-12-12T07:30:17.739Z,11.97
2018-12-12T07:32:47.329Z,11.00
2018-12-12T07:35:16.289Z,12.63
2018-12-12T07:37:45.877Z,14.53
2018-12-12T07:40:14.917Z,12.50
2018-12-12T07:42:44.097Z,12.10
2018-12-12T07:45:13.261Z,11.50
2018-12-12T07:47:42.292Z,13.50
2018-12-12T07:50:11.494Z,11.73
2018-12-12T07:52:40.207Z,12.03
2018-12-12T07:55:09.274Z,12.13
2018-12-12T07:57:38.478Z,11.43
2018-12-12T08:00:08.438Z,10.93
2018-12-12T08:02:37.477Z,10.80
2018-12-12T08:05:06.713Z,11.40
2018-12-12T08:07:35.744Z,12.00
2018-12-12T08:10:05.986Z,12.70
2018-12-12T08:12:34.992Z,11.57
2018-12-12T08:15:04.457Z,11.67
2018-12-12T08:17:33.460Z,11.37
2018-12-12T08:20:02.284Z,13.23
2018-12-12T08:22:31.212Z,13.03
2018-12-12T08:24:59.928Z,12.03
2018-12-12T08:27:28.851Z,10.67
2018-12-12T08:29:57.844Z,11.43
2018-12-12T08:32:26.836Z,11.40
2018-12-12T08:34:55.579Z,11.13
2018-12-12T08:37:24.643Z,11.33
2018-12-12T08:39:53.338Z,10.90
2018-12-12T08:42:22.241Z,12.53
2018-12-12T08:44:51.246Z,10.97
2018-12-12T08:47:20.257Z,12.03
2018-12-12T08:49:49.285Z,12.13
2018-12-12T08:52:18.280Z,12.30
2018-12-12T08:54:47.263Z,11.80
2018-12-12T08:57:16.600Z,13.17
2018-12-12T08:59:46.344Z,11.93
2018-12-12T09:02:15.320Z,11.67
2018-12-12T09:04:45.218Z,11.90
2018-12-12T09:07:14.556Z,11.30
2018-12-12T09:09:43.707Z,11.90
2018-12-12T09:12:12.672Z,13.00
2018-12-12T09:14:41.682Z,13.53
2018-12-12T09:17:10.722Z,11.73
2018-12-12T09:19:39.913Z,12.20
2018-12-12T09:22:08.909Z,11.80
2018-12-12T09:24:37.958Z,10.67
2018-12-12T09:27:07.188Z,12.30
2018-12-12T09:29:36.163Z,11.97
2018-12-12T09:32:05.289Z,11.80
2018-12-12T09:34:34.045Z,11.87
2018-12-12T09:37:03.073Z,13.23
2018-12-12T09:39:32.036Z,11.43
2018-12-12T09:42:01.056Z,13.03
2018-12-12T09:44:30.205Z,11.47
2018-12-12T09:46:59.118Z,13.17
2018-12-12T09:49:28.001Z,12.37
2018-12-12T09:51:56.979Z,11.07
2018-12-12T09:54:25.970Z,12.17
2018-12-12T09:56:58.991Z,11.23
2018-12-12T09:59:28.500Z,12.33
2018-12-12T10:02:00.841Z,11.87
2018-12-12T10:04:34.703Z,11.23
2018-12-12T10:07:03.842Z,10.97
2018-12-12T10:09:33.107Z,11.07
2018-12-12T10:12:02.122Z,11.93
2018-12-12T10:14:31.394Z,12.10
2018-12-12T10:17:00.988Z,12.77
2018-12-12T10:19:29.644Z,12.40
2018-12-12T10:21:58.600Z,11.67
2018-12-12T10:24:27.948Z,12.47
2018-12-12T10:26:56.932Z,12.57
2018-12-12T10:29:25.924Z,13.13
2018-12-12T10:31:55.461Z,11.40
2018-12-12T10:34:24.452Z,12.17
2018-12-12T10:36:53.434Z,12.10
2018-12-12T10:39:22.120Z,11.80
2018-12-12T10:41:50.697Z,11.83
2018-12-12T10:44:19.305Z,11.17
2018-12-12T10:46:48.220Z,11.93
2018-12-12T10:49:17.428Z,11.53
2018-12-12T10:51:46.636Z,11.27
2018-12-12T10:54:15.333Z,12.07
2018-12-12T10:56:44.260Z,12.93
2018-12-12T10:59:13.609Z,11.73
2018-12-12T11:01:47.646Z,11.17
2018-12-12T11:04:18.501Z,11.13
2018-12-12T11:06:47.192Z,12.37
2018-12-12T11:09:16.069Z,13.37
2018-12-12T11:11:45.280Z,11.87
2018-12-12T11:14:14.288Z,11.70
2018-12-12T11:16:43.368Z,10.93
2018-12-12T11:19:12.084Z,12.07
2018-12-12T11:21:40.968Z,11.70
2018-12-12T11:24:10.218Z,12.77
2018-12-12T11:26:39.204Z,12.53
2018-12-12T11:29:08.915Z,12.37
2018-12-12T11:31:37.837Z,12.73
2018-12-12T11:34:07.194Z,12.13
2018-12-12T11:36:35.875Z,13.27
2018-12-12T11:39:06.165Z,12.37
2018-12-12T11:41:35.160Z,11.20
2018-12-12T11:44:04.321Z,13.07
2018-12-12T11:46:33.330Z,12.87
2018-12-12T11:49:02.323Z,13.40
2018-12-12T11:51:32.162Z,13.50
2018-12-12T11:54:01.291Z,12.50
2018-12-12T11:56:29.972Z,13.37
2018-12-12T11:58:58.672Z,13.20
2018-12-12T12:01:28.328Z,13.17
2018-12-12T12:03:57.041Z,13.00
2018-12-12T12:06:26.263Z,12.83
2018-12-12T12:08:55.274Z,13.07
2018-12-12T12:11:23.972Z,12.27
2018-12-12T12:13:53.858Z,12.03
2018-12-12T12:16:23.175Z,13.40
2018-12-12T12:18:52.169Z,12.53
2018-12-12T12:21:21.436Z,12.87
2018-12-12T12:23:50.442Z,12.67
2018-12-12T12:26:20.441Z,13.63
2018-12-12T12:28:49.635Z,13.50
2018-12-12T12:31:19.688Z,13.03
2018-12-12T12:33:49.999Z,13.87
2018-12-12T12:36:18.672Z,12.97
2018-12-12T12:38:47.531Z,13.20
2018-12-12T12:41:16.668Z,13.67
2018-12-12T12:43:45.652Z,12.73
2018-12-12T12:46:14.668Z,12.67
2018-12-12T12:48:43.888Z,13.00
2018-12-12T12:51:12.575Z,13.60
2018-12-12T12:53:41.383Z,13.27
2018-12-12T12:56:10.321Z,13.53
2018-12-12T12:58:39.347Z,14.83
2018-12-12T13:01:08.564Z,12.20
2018-12-12T13:03:37.233Z,13.97
2018-12-12T13:06:06.228Z,13.83
2018-12-12T13:08:35.192Z,12.87
2018-12-12T13:11:04.309Z,13.80
2018-12-12T13:13:33.142Z,12.97
2018-12-12T13:16:01.987Z,12.73
2018-12-12T13:18:31.005Z,12.97
2018-12-12T13:21:00.012Z,14.70
2018-12-12T13:23:28.695Z,12.33
2018-12-12T13:25:57.318Z,12.87
2018-12-12T13:28:26.259Z,14.83
2018-12-12T13:30:55.309Z,12.87
2018-12-12T13:33:24.288Z,13.47
2018-12-12T13:35:52.992Z,13.00
2018-12-12T13:38:22.007Z,13.87
2018-12-12T13:40:51.137Z,11.47
2018-12-12T13:43:20.148Z,14.07
2018-12-12T13:45:49.172Z,12.80
2018-12-12T13:48:18.160Z,13.47
2018-12-12T13:50:47.281Z,13.57
2018-12-12T13:53:16.580Z,12.97
2018-12-12T13:55:45.584Z,13.30
2018-12-12T13:58:14.738Z,13.87
2018-12-12T14:00:43.884Z,13.23
2018-12-12T14:03:12.547Z,15.10
2018-12-12T14:05:41.182Z,13.20
2018-12-12T14:08:10.280Z,13.03
2018-12-12T14:10:39.366Z,14.47
2018-12-12T14:13:08.388Z,13.57
2018-12-12T14:15:37.061Z,13.70
2018-12-12T14:18:05.760Z,12.83
2018-12-12T14:20:34.708Z,13.30
2018-12-12T14:23:04.653Z,14.53
2018-12-12T14:25:33.466Z,14.03
2018-12-12T14:28:02.198Z,14.30
2018-12-12T14:30:30.912Z,13.40
2018-12-12T14:32:59.820Z,12.97
2018-12-12T14:35:28.936Z,13.80
2018-12-12T14:37:59.003Z,12.33
2018-12-12T14:40:27.980Z,13.07
2018-12-12T14:42:57.016Z,12.93
2018-12-12T14:45:25.816Z,13.60
2018-12-12T14:47:54.801Z,12.77
2018-12-12T14:50:23.587Z,14.20
2018-12-12T14:52:52.243Z,12.50
2018-12-12T14:55:21.071Z,12.83
2018-12-12T14:57:50.008Z,12.27
2018-12-12T15:00:19.138Z,11.97
2018-12-12T15:02:48.149Z,12.17
2018-12-12T15:05:17.348Z,12.93
2018-12-12T15:07:46.351Z,13.87
2018-12-12T15:10:15.361Z,12.27
2018-12-12T15:12:44.544Z,13.57
2018-12-12T15:15:13.399Z,12.63
2018-12-12T15:17:42.427Z,12.73
2018-12-12T15:20:11.954Z,12.57
2018-12-12T15:22:50.316Z,12.10
2018-12-12T15:25:28.138Z,13.17
2018-12-12T15:27:57.316Z,12.97
2018-12-12T15:30:27.481Z,13.13
2018-12-12T15:33:04.648Z,13.30
2018-12-12T15:35:33.706Z,12.53
2018-12-12T15:38:02.563Z,14.13
2018-12-12T15:40:31.300Z,13.17
2018-12-12T15:43:00.907Z,13.80
2018-12-12T15:45:30.107Z,13.53
2018-12-12T15:47:59.018Z,14.30
2018-12-12T15:50:28.017Z,13.03
2018-12-12T15:52:57.019Z,13.57
2018-12-12T15:55:25.740Z,14.00
2018-12-12T15:57:54.359Z,13.57
2018-12-12T16:00:24.971Z,12.53
2018-12-12T16:02:53.930Z,14.40
2018-12-12T16:05:22.928Z,13.47
2018-12-12T16:07:52.044Z,13.40
2018-12-12T16:10:20.683Z,14.23
2018-12-12T16:12:49.647Z,13.97
2018-12-12T16:15:18.662Z,13.30
2018-12-12T16:17:47.571Z,14.47
2018-12-12T16:20:16.504Z,13.20
2018-12-12T16:22:45.569Z,14.90
2018-12-12T16:25:14.616Z,14.40
2018-12-12T16:27:43.357Z,14.17
2018-12-12T16:30:12.445Z,12.13
2018-12-12T16:32:41.519Z,14.57
2018-12-12T16:35:10.576Z,13.27
2018-12-12T16:37:49.832Z,12.73
2018-12-12T16:40:19.377Z,13.67
2018-12-12T16:42:48.637Z,13.10
2018-12-12T16:45:17.809Z,13.60
2018-12-12T16:47:47.867Z,13.27
2018-12-12T16:50:16.552Z,13.30
2018-12-12T16:52:45.233Z,12.93
2018-12-12T16:55:14.332Z,13.90
2018-12-12T16:57:43.452Z,12.97
2018-12-12T17:00:12.686Z,13.13
2018-12-12T17:02:42.133Z,13.90
2018-12-12T17:05:11.118Z,12.63
2018-12-12T17:07:40.892Z,13.87
2018-12-12T17:10:10.791Z,13.20
2018-12-12T17:12:40.576Z,12.77
2018-12-12T17:15:09.809Z,13.27
2018-12-12T17:17:38.857Z,13.00
2018-12-12T17:20:08.566Z,12.53
2018-12-12T17:22:37.247Z,13.33
2018-12-12T17:25:06.425Z,12.93
2018-12-12T17:27:35.556Z,13.07
2018-12-12T17:30:06.361Z,12.90
2018-12-12T17:32:35.531Z,13.47
2018-12-12T17:35:15.712Z,12.57
2018-12-12T17:37:44.414Z,12.03
2018-12-12T17:40:13.340Z,12.13
2018-12-12T17:42:42.360Z,12.73
2018-12-12T17:45:11.347Z,13.13
2018-12-12T17:47:40.411Z,11.17
2018-12-12T17:50:09.318Z,10.47
2018-12-12T17:52:38.253Z,10.43
2018-12-12T17:55:07.142Z,10.37
2018-12-12T17:57:36.705Z,10.03
2018-12-12T18:00:05.902Z,9.17
2018-12-12T18:02:35.049Z,9.30
2018-12-12T18:05:04.588Z,8.67
2018-12-12T18:07:33.658Z,8.23
2018-12-12T18:10:02.710Z,7.80
2018-12-12T18:12:31.479Z,8.00
2018-12-12T18:15:00.352Z,8.20
2018-12-12T18:17:29.349Z,8.40
2018-12-12T18:19:58.511Z,8.90
2018-12-12T18:22:27.232Z,7.13
2018-12-12T18:24:55.840Z,7.07
2018-12-12T18:27:24.911Z,6.53
2018-12-12T18:29:53.628Z,6.47
2018-12-12T18:32:22.826Z,5.87
2018-12-12T18:34:51.914Z,6.50
2018-12-12T18:37:21.040Z,5.30
2018-12-12T18:39:49.717Z,6.10
2018-12-12T18:42:18.616Z,5.83
2018-12-12T18:44:47.661Z,5.60
2018-12-12T18:47:16.349Z,5.30
2018-12-12T18:49:45.305Z,6.50
2018-12-12T18:52:14.302Z,5.90
2018-12-12T18:54:43.260Z,6.47
2018-12-12T18:57:12.000Z,5.63
2018-12-12T18:59:40.889Z,6.20
2018-12-12T19:02:10.053Z,6.23
2018-12-12T19:04:38.981Z,7.00
2018-12-12T19:07:10.489Z,6.70
2018-12-12T19:09:39.906Z,6.43
2018-12-12T19:12:10.041Z,7.10
2018-12-12T19:14:43.350Z,6.40
2018-12-12T19:17:12.054Z,6.63
2018-12-12T19:19:41.122Z,6.37
2018-12-12T19:22:10.512Z,6.23
2018-12-12T19:24:39.197Z,5.83
2018-12-12T19:27:08.132Z,5.97
2018-12-12T19:29:37.100Z,6.13
2018-12-12T19:32:06.267Z,6.53
2018-12-12T19:34:35.844Z,6.23
2018-12-12T19:37:04.945Z,6.27
2018-12-12T19:39:34.057Z,5.97
2018-12-12T19:42:03.060Z,6.40
2018-12-12T19:44:32.091Z,6.50
2018-12-12T19:47:00.855Z,5.53
2018-12-12T19:49:29.784Z,6.17
2018-12-12T19:51:59.716Z,5.80
2018-12-12T19:54:28.617Z,5.33
2018-12-12T19:56:59.646Z,5.90
2018-12-12T19:59:28.396Z,5.40
2018-12-12T20:01:57.537Z,5.90
2018-12-12T20:04:27.081Z,6.10
2018-12-12T20:06:56.221Z,6.47
2018-12-12T20:09:25.389Z,6.53
2018-12-12T20:11:54.454Z,5.17
2018-12-12T20:14:23.450Z,5.97
2018-12-12T20:16:52.672Z,6.50
2018-12-12T20:19:21.256Z,6.23
2018-12-12T20:21:49.988Z,5.93
2018-12-12T20:24:19.216Z,6.77
2018-12-12T20:26:48.173Z,6.93
2018-12-12T20:29:18.440Z,6.43
2018-12-12T20:31:47.404Z,6.80
2018-12-12T20:34:16.088Z,6.97
2018-12-12T20:36:44.965Z,6.70
2018-12-12T20:39:14.029Z,7.40
2018-12-12T20:41:42.767Z,5.87
2018-12-12T20:44:14.191Z,7.10
2018-12-12T20:46:43.356Z,6.93
2018-12-12T20:49:12.745Z,6.73
2018-12-12T20:51:42.067Z,7.10
2018-12-12T20:54:10.747Z,6.83
2018-12-12T20:56:39.994Z,6.53
2018-12-12T20:59:09.121Z,7.63
2018-12-12T21:01:38.273Z,6.93
2018-12-12T21:04:07.299Z,7.57
2018-12-12T21:06:36.056Z,7.77
2018-12-12T21:09:06.648Z,7.40
2018-12-12T21:11:35.660Z,6.83
2018-12-12T21:14:04.889Z,7.23
2018-12-12T21:16:33.950Z,7.60
2018-12-12T21:19:02.997Z,8.00
2018-12-12T21:21:32.054Z,7.87
2018-12-12T21:24:01.104Z,8.10
2018-12-12T21:26:30.225Z,7.33
2018-12-12T21:28:59.702Z,7.07
2018-12-12T21:31:28.667Z,8.83
2018-12-12T21:33:57.603Z,8.30
2018-12-12T21:36:27.191Z,8.43
2018-12-12T21:39:11.443Z,7.43
2018-12-12T21:41:40.563Z,7.93
2018-12-12T21:44:09.625Z,7.70
2018-12-12T21:46:40.333Z,8.10
2018-12-12T21:49:09.359Z,7.33
2018-12-12T21:51:38.410Z,7.90
2018-12-12T21:54:07.434Z,8.30
2018-12-12T21:56:36.489Z,8.30
2018-12-12T21:59:05.536Z,8.20
2018-12-12T22:01:34.224Z,8.60
2018-12-12T22:04:02.831Z,7.87
2018-12-12T22:06:32.041Z,7.60
2018-12-12T22:09:01.099Z,7.77
2018-12-12T22:11:30.431Z,8.80
2018-12-12T22:13:59.549Z,8.17
2018-12-12T22:16:28.504Z,7.20
2018-12-12T22:18:57.656Z,7.87
2018-12-12T22:21:26.664Z,7.80
2018-12-12T22:23:55.702Z,7.63
2018-12-12T22:26:25.197Z,7.37
2018-12-12T22:28:54.584Z,8.30
2018-12-12T22:31:23.508Z,7.70
2018-12-12T22:33:52.507Z,8.30
2018-12-12T22:36:21.516Z,7.27
2018-12-12T22:38:50.546Z,7.07
2018-12-12T22:41:19.857Z,8.10
2018-12-12T22:43:48.961Z,7.93
2018-12-12T22:46:17.977Z,6.33
2018-12-12T22:48:47.580Z,7.70
2018-12-12T22:51:16.699Z,6.47
2018-12-12T22:53:45.737Z,7.27
2018-12-12T22:56:14.417Z,7.77
2018-12-12T22:58:43.414Z,6.77
2018-12-12T23:01:16.830Z,7.30
2018-12-12T23:03:45.580Z,8.10
2018-12-12T23:06:20.206Z,7.33
2018-12-12T23:08:45.043Z,7.50
2018-12-12T23:11:15.528Z,6.93
2018-12-12T23:13:44.217Z,7.27
2018-12-12T23:16:13.409Z,7.93
2018-12-12T23:18:43.104Z,8.43
2018-12-12T23:21:12.412Z,7.07
2018-12-12T23:23:41.460Z,6.87
2018-12-12T23:26:10.468Z,6.90
2018-12-12T23:28:39.563Z,7.37
2018-12-12T23:31:08.712Z,7.63
2018-12-12T23:33:37.664Z,7.57
2018-12-12T23:36:06.780Z,7.97
2018-12-12T23:38:35.957Z,8.00
2018-12-12T23:41:05.281Z,7.73
2018-12-12T23:43:34.272Z,6.73
2018-12-12T23:46:05.442Z,8.30
2018-12-12T23:48:34.127Z,7.83
2018-12-12T23:51:03.151Z,8.03
2018-12-12T23:53:32.183Z,8.37
2018-12-12T23:56:01.232Z,8.03
2018-12-12T23:58:30.258Z,9.73
